Omitama, Japan
Current Conditions -  °F | °C
As of 1:06 PM on Sunday 26 Oct 2014 (Local Time) from RJAH Reporting Station
Broken Clouds Broken Clouds  
Wind Chill: 73°   Ceiling: 5000
Heat Index: 73°   Visibility: 5mi
Dew Point: 61°   Wind: 9mph
Humidity: 65%   Direction: 190°S
Pressure: 30.06"   Gusts: NA
Location:  36.23°N, 140.35°E
Report Text: RJAH 260406Z 19008KT 160V220 8000 FEW015 SCT020 BKN050 23/16 Q1018 RMK 1CU015 4CU020 5SC050 A3007
Loading
Personal Weather Stations






























Interactive Weather Map
Tropical Storm Tracking
New forecast layout! Learn more

10-Day Weather Forecast

Advertisements
Track Severe Weather on mobile